PWSweather.com
Personal Weather Stations
Station Observations
IPUMONTE2
MontelabbateIT 61025

MontelabbateIT 61025

Lat: 43.848, Lon: 12.7895

Elevation: 196

Station Type: LaCrosse WS3600

http://www.montelabbatemet.altervista.org/

Latest ConditionsUpdated 10:58:51 PM GMT+01:01 Saturday, Feb 23, 2019
Currently Today's Max Today's Min Today's Average
Temperature 41.1°F5.1°C 47.1°F8.4°C 40.1°F4.5°C 42.7°F5.9°C
Dew Point 23.3°F-4.8°C 42.3°F5.7°C 15.9°F-8.9°C 22.0°F-5.6°C
Winds 8.7 mph NNE14.0 kmh NNE 19.8 mph -31.9 kmh - - 10.7 mph 17.2 kmh
Wind Gusts 16.3 mph26.2 kmh 25.0 mph40.2 kmh - -
Humidity 49% 88% 33% 45%
Pressure 30.38 in1028.8 mb 30.40 in1029.5 mb 30.20 in1022.7 mb -
Hour Temp Dew Point Humidity Winds Wind Gusts Pressure Precip Precip Rate Daily Precip Total
10:58 PM 41.1°F5.1°C 23.3°F-4.8°C 49% 8.7 mph NNE14.0 kmh NNE 16.3 mph26.2 kmh 30.38 in1028.8 mb 0.00 in0.0 mm 0.00 in0.0 mm 0.00 in0.0 mm
10:53 PM 41.3°F5.2°C 23.5°F-4.7°C 49% 10.9 mph N17.5 kmh N 16.3 mph26.2 kmh 30.39 in1029.1 mb 0.00 in0.0 mm 0.00 in0.0 mm 0.00 in0.0 mm
10:48 PM 41.5°F5.3°C 23.7°F-4.6°C 49% 12.0 mph NE19.3 kmh NE 14.0 mph22.5 kmh 30.39 in1029.1 mb 0.00 in0.0 mm 0.00 in0.0 mm 0.00 in0.0 mm
10:43 PM 41.5°F5.3°C 22.6°F-5.2°C 47% 9.9 mph ENE15.9 kmh ENE 17.4 mph28.0 kmh 30.40 in1029.5 mb 0.00 in0.0 mm 0.00 in0.0 mm 0.00 in0.0 mm
10:38 PM 41.5°F5.3°C 22.6°F-5.2°C 47% 15.4 mph NNE24.8 kmh NNE 17.4 mph28.0 kmh 30.39 in1029.1 mb 0.00 in0.0 mm 0.00 in0.0 mm 0.00 in0.0 mm
10:33 PM 41.5°F5.3°C 22.6°F-5.2°C 47% 10.9 mph NE17.5 kmh NE 15.8 mph25.4 kmh 30.39 in1029.1 mb 0.00 in0.0 mm 0.00 in0.0 mm 0.00 in0.0 mm
10:28 PM 41.5°F5.3°C 23.2°F-4.9°C 48% 9.3 mph NNE15.0 kmh NNE 11.1 mph17.9 kmh 30.39 in1029.1 mb 0.00 in0.0 mm 0.00 in0.0 mm 0.00 in0.0 mm
10:23 PM 41.3°F5.2°C 23.5°F-4.7°C 49% 4.4 mph ENE7.1 kmh ENE 18.3 mph29.5 kmh 30.38 in1028.8 mb 0.00 in0.0 mm 0.00 in0.0 mm 0.00 in0.0 mm
10:18 PM 41.5°F5.3°C 23.7°F-4.6°C 49% 8.5 mph NE13.7 kmh NE 18.3 mph29.5 kmh 30.36 in1028.1 mb 0.00 in0.0 mm 0.00 in0.0 mm 0.00 in0.0 mm
10:13 PM 41.3°F5.2°C 23.0°F-5.0°C 48% 9.4 mph NNE15.1 kmh NNE 15.8 mph25.4 kmh 30.36 in1028.1 mb 0.00 in0.0 mm 0.00 in0.0 mm 0.00 in0.0 mm
10:08 PM 41.5°F5.3°C 23.7°F-4.6°C 49% 13.1 mph NE21.1 kmh NE 20.1 mph32.3 kmh 30.36 in1028.1 mb 0.00 in0.0 mm 0.00 in0.0 mm 0.00 in0.0 mm
10:03 PM 41.7°F5.4°C 23.3°F-4.8°C 48% 16.5 mph NNE26.6 kmh NNE 20.1 mph32.3 kmh 30.35 in1027.8 mb 0.00 in0.0 mm 0.00 in0.0 mm 0.00 in0.0 mm
09:58 PM 41.7°F5.4°C 23.9°F-4.5°C 49% 14.9 mph NE24.0 kmh NE 17.0 mph27.4 kmh 30.36 in1028.1 mb 0.00 in0.0 mm 0.00 in0.0 mm 0.00 in0.0 mm
09:53 PM 41.7°F5.4°C 23.3°F-4.8°C 48% 11.7 mph NE18.8 kmh NE 15.8 mph25.4 kmh 30.37 in1028.4 mb 0.00 in0.0 mm 0.00 in0.0 mm 0.00 in0.0 mm
09:48 PM 41.7°F5.4°C 22.8°F-5.1°C 47% 13.8 mph NNE22.2 kmh NNE 15.8 mph25.4 kmh 30.37 in1028.4 mb 0.00 in0.0 mm 0.00 in0.0 mm 0.00 in0.0 mm
09:43 PM 41.7°F5.4°C 22.8°F-5.1°C 47% 10.7 mph NE17.2 kmh NE 15.6 mph25.1 kmh 30.37 in1028.4 mb 0.00 in0.0 mm 0.00 in0.0 mm 0.00 in0.0 mm
09:38 PM 42.0°F5.6°C 23.2°F-4.9°C 47% 10.5 mph NNE16.9 kmh NNE 15.6 mph25.1 kmh 30.37 in1028.4 mb 0.00 in0.0 mm 0.00 in0.0 mm 0.00 in0.0 mm
09:33 PM 42.0°F5.6°C 23.2°F-4.9°C 47% 13.1 mph NE21.1 kmh NE 14.9 mph24.0 kmh 30.37 in1028.4 mb 0.00 in0.0 mm 0.00 in0.0 mm 0.00 in0.0 mm
09:28 PM 42.0°F5.6°C 23.2°F-4.9°C 47% 12.1 mph NNE19.5 kmh NNE 15.8 mph25.4 kmh 30.37 in1028.4 mb 0.00 in0.0 mm 0.00 in0.0 mm 0.00 in0.0 mm
09:23 PM 42.2°F5.7°C 22.8°F-5.1°C 46% 11.4 mph NNE18.3 kmh NNE 17.6 mph28.3 kmh 30.37 in1028.4 mb 0.00 in0.0 mm 0.00 in0.0 mm 0.00 in0.0 mm
09:18 PM 42.2°F5.7°C 23.3°F-4.8°C 47% 10.4 mph NE16.7 kmh NE 19.0 mph30.6 kmh 30.36 in1028.1 mb 0.00 in0.0 mm 0.00 in0.0 mm 0.00 in0.0 mm
09:13 PM 42.4°F5.8°C 23.5°F-4.7°C 47% 12.0 mph NNE19.3 kmh NNE 20.1 mph32.3 kmh 30.35 in1027.8 mb 0.00 in0.0 mm 0.00 in0.0 mm 0.00 in0.0 mm
09:08 PM 42.4°F5.8°C 24.0°F-4.4°C 48% 15.5 mph NNE24.9 kmh NNE 20.1 mph32.3 kmh 30.35 in1027.8 mb 0.00 in0.0 mm 0.00 in0.0 mm 0.00 in0.0 mm
09:03 PM 42.4°F5.8°C 24.0°F-4.4°C 48% 15.7 mph NE25.3 kmh NE 19.6 mph31.5 kmh 30.34 in1027.4 mb 0.00 in0.0 mm 0.00 in0.0 mm 0.00 in0.0 mm
08:58 PM 42.4°F5.8°C 23.5°F-4.7°C 47% 14.2 mph NE22.9 kmh NE 22.1 mph35.6 kmh 30.34 in1027.4 mb 0.00 in0.0 mm 0.00 in0.0 mm 0.00 in0.0 mm
08:53 PM 42.4°F5.8°C 23.0°F-5.0°C 46% 13.8 mph NNE22.2 kmh NNE 22.1 mph35.6 kmh 30.34 in1027.4 mb 0.00 in0.0 mm 0.00 in0.0 mm 0.00 in0.0 mm
08:48 PM 42.6°F5.9°C 22.6°F-5.2°C 45% 19.8 mph NNE31.9 kmh NNE 21.4 mph34.4 kmh 30.35 in1027.8 mb 0.00 in0.0 mm 0.00 in0.0 mm 0.00 in0.0 mm
08:43 PM 42.6°F5.9°C 22.6°F-5.2°C 45% 15.6 mph NNE25.1 kmh NNE 17.6 mph28.3 kmh 30.36 in1028.1 mb 0.00 in0.0 mm 0.00 in0.0 mm 0.00 in0.0 mm
08:38 PM 42.4°F5.8°C 23.0°F-5.0°C 46% 8.6 mph N13.8 kmh N 12.9 mph20.8 kmh 30.36 in1028.1 mb 0.00 in0.0 mm 0.00 in0.0 mm 0.00 in0.0 mm
08:33 PM 42.6°F5.9°C 22.1°F-5.5°C 44% 9.8 mph NNE15.8 kmh NNE 12.9 mph20.8 kmh 30.37 in1028.4 mb 0.00 in0.0 mm 0.00 in0.0 mm 0.00 in0.0 mm
08:28 PM 42.9°F6.1°C 22.4°F-5.3°C 44% 11.2 mph NNE18.0 kmh NNE 12.9 mph20.8 kmh 30.37 in1028.4 mb 0.00 in0.0 mm 0.00 in0.0 mm 0.00 in0.0 mm
08:23 PM 42.8°F6.0°C 22.2°F-5.4°C 44% 10.2 mph NE16.4 kmh NE 11.6 mph18.7 kmh 30.37 in1028.4 mb 0.00 in0.0 mm 0.00 in0.0 mm 0.00 in0.0 mm
08:18 PM 42.8°F6.0°C 21.2°F-6.0°C 42% 10.3 mph NNE16.6 kmh NNE 12.0 mph19.3 kmh 30.36 in1028.1 mb 0.00 in0.0 mm 0.00 in0.0 mm 0.00 in0.0 mm
08:13 PM 42.6°F5.9°C 19.9°F-6.7°C 40% 8.5 mph NE13.7 kmh NE 13.4 mph21.6 kmh 30.36 in1028.1 mb 0.00 in0.0 mm 0.00 in0.0 mm 0.00 in0.0 mm
08:08 PM 42.6°F5.9°C 21.0°F-6.1°C 42% 9.3 mph NNE15.0 kmh NNE 13.4 mph21.6 kmh 30.35 in1027.8 mb 0.00 in0.0 mm 0.00 in0.0 mm 0.00 in0.0 mm
08:03 PM 42.8°F6.0°C 21.2°F-6.0°C 42% 11.5 mph NE18.5 kmh NE 14.7 mph23.7 kmh 30.34 in1027.4 mb 0.00 in0.0 mm 0.00 in0.0 mm 0.00 in0.0 mm
07:58 PM 42.6°F5.9°C 20.4°F-6.4°C 41% 7.4 mph NNE11.9 kmh NNE 20.1 mph32.3 kmh 30.33 in1027.1 mb 0.00 in0.0 mm 0.00 in0.0 mm 0.00 in0.0 mm
07:53 PM 42.9°F6.1°C 19.6°F-6.9°C 39% 12.3 mph NNE19.8 kmh NNE 20.1 mph32.3 kmh 30.33 in1027.1 mb 0.00 in0.0 mm 0.00 in0.0 mm 0.00 in0.0 mm
07:48 PM 42.9°F6.1°C 20.8°F-6.2°C 41% 9.2 mph NNE14.8 kmh NNE 13.6 mph21.9 kmh 30.34 in1027.4 mb 0.00 in0.0 mm 0.00 in0.0 mm 0.00 in0.0 mm
07:43 PM 43.1°F6.2°C 20.9°F-6.2°C 41% 11.6 mph NE18.7 kmh NE 18.5 mph29.8 kmh 30.35 in1027.8 mb 0.00 in0.0 mm 0.00 in0.0 mm 0.00 in0.0 mm
07:38 PM 43.3°F6.3°C 20.6°F-6.3°C 40% 11.6 mph ENE18.7 kmh ENE 18.5 mph29.8 kmh 30.35 in1027.8 mb 0.00 in0.0 mm 0.00 in0.0 mm 0.00 in0.0 mm
07:33 PM 43.3°F6.3°C 21.1°F-6.1°C 41% 9.9 mph NNE15.9 kmh NNE 14.0 mph22.5 kmh 30.35 in1027.8 mb 0.00 in0.0 mm 0.00 in0.0 mm 0.00 in0.0 mm
07:28 PM 43.3°F6.3°C 21.6°F-5.8°C 42% 11.4 mph NNE18.3 kmh NNE 14.7 mph23.7 kmh 30.35 in1027.8 mb 0.00 in0.0 mm 0.00 in0.0 mm 0.00 in0.0 mm
07:23 PM 43.3°F6.3°C 20.6°F-6.3°C 40% 13.1 mph N21.1 kmh N 15.2 mph24.5 kmh 30.34 in1027.4 mb 0.00 in0.0 mm 0.00 in0.0 mm 0.00 in0.0 mm
07:18 PM 43.3°F6.3°C 20.6°F-6.3°C 40% 14.0 mph NNE22.5 kmh NNE 16.3 mph26.2 kmh 30.34 in1027.4 mb 0.00 in0.0 mm 0.00 in0.0 mm 0.00 in0.0 mm
07:13 PM 43.3°F6.3°C 19.9°F-6.7°C 39% 12.2 mph NE19.6 kmh NE 16.3 mph26.2 kmh 30.33 in1027.1 mb 0.00 in0.0 mm 0.00 in0.0 mm 0.00 in0.0 mm
07:08 PM 43.3°F6.3°C 19.9°F-6.7°C 39% 13.5 mph NE21.7 kmh NE 15.4 mph24.8 kmh 30.33 in1027.1 mb 0.00 in0.0 mm 0.00 in0.0 mm 0.00 in0.0 mm
07:03 PM 43.3°F6.3°C 19.2°F-7.1°C 38% 12.4 mph NE20.0 kmh NE 17.8 mph28.6 kmh 30.33 in1027.1 mb 0.00 in0.0 mm 0.00 in0.0 mm 0.00 in0.0 mm
06:58 PM 43.3°F6.3°C 19.2°F-7.1°C 38% 13.1 mph NE21.1 kmh NE 17.8 mph28.6 kmh 30.33 in1027.1 mb 0.00 in0.0 mm 0.00 in0.0 mm 0.00 in0.0 mm
06:53 PM 43.3°F6.3°C 18.6°F-7.4°C 37% 12.1 mph NNE19.5 kmh NNE 17.2 mph27.7 kmh 30.33 in1027.1 mb 0.00 in0.0 mm 0.00 in0.0 mm 0.00 in0.0 mm
06:48 PM 43.3°F6.3°C 17.9°F-7.8°C 36% 11.2 mph NE18.0 kmh NE 16.1 mph25.9 kmh 30.34 in1027.4 mb 0.00 in0.0 mm 0.00 in0.0 mm 0.00 in0.0 mm
06:43 PM 43.3°F6.3°C 17.2°F-8.2°C 35% 11.1 mph NE17.9 kmh NE 18.7 mph30.1 kmh 30.34 in1027.4 mb 0.00 in0.0 mm 0.00 in0.0 mm 0.00 in0.0 mm
06:38 PM 43.5°F6.4°C 16.7°F-8.5°C 34% 14.7 mph NNE23.7 kmh NNE 18.7 mph30.1 kmh 30.33 in1027.1 mb 0.00 in0.0 mm 0.00 in0.0 mm 0.00 in0.0 mm
06:33 PM 43.5°F6.4°C 16.7°F-8.5°C 34% 16.0 mph NE25.7 kmh NE 18.7 mph30.1 kmh 30.33 in1027.1 mb 0.00 in0.0 mm 0.00 in0.0 mm 0.00 in0.0 mm
06:28 PM 43.5°F6.4°C 16.7°F-8.5°C 34% 15.6 mph NNE25.1 kmh NNE 16.5 mph26.6 kmh 30.33 in1027.1 mb 0.00 in0.0 mm 0.00 in0.0 mm 0.00 in0.0 mm
06:23 PM 43.3°F6.3°C 17.2°F-8.2°C 35% 11.6 mph NE18.7 kmh NE 15.2 mph24.5 kmh 30.33 in1027.1 mb 0.00 in0.0 mm 0.00 in0.0 mm 0.00 in0.0 mm
06:18 PM 43.3°F6.3°C 17.9°F-7.8°C 36% 7.3 mph NNE11.7 kmh NNE 12.7 mph20.4 kmh 30.34 in1027.4 mb 0.00 in0.0 mm 0.00 in0.0 mm 0.00 in0.0 mm
06:13 PM 43.3°F6.3°C 17.2°F-8.2°C 35% 7.6 mph NE12.2 kmh NE 13.1 mph21.1 kmh 30.33 in1027.1 mb 0.00 in0.0 mm 0.00 in0.0 mm 0.00 in0.0 mm
06:08 PM 43.3°F6.3°C 17.2°F-8.2°C 35% 9.8 mph NNE15.8 kmh NNE 13.8 mph22.2 kmh 30.34 in1027.4 mb 0.00 in0.0 mm 0.00 in0.0 mm 0.00 in0.0 mm
06:03 PM 43.3°F6.3°C 17.2°F-8.2°C 35% 9.2 mph NNE14.8 kmh NNE 13.8 mph22.2 kmh 30.34 in1027.4 mb 0.00 in0.0 mm 0.00 in0.0 mm 0.00 in0.0 mm
05:58 PM 43.3°F6.3°C 17.2°F-8.2°C 35% 11.2 mph NE18.0 kmh NE 14.0 mph22.5 kmh 30.34 in1027.4 mb 0.00 in0.0 mm 0.00 in0.0 mm 0.00 in0.0 mm
05:53 PM 43.3°F6.3°C 18.6°F-7.4°C 37% 9.0 mph NE14.5 kmh NE 14.0 mph22.5 kmh 30.34 in1027.4 mb 0.00 in0.0 mm 0.00 in0.0 mm 0.00 in0.0 mm
05:47 PM 43.3°F6.3°C 19.2°F-7.1°C 38% 8.9 mph NE14.3 kmh NE 12.5 mph20.1 kmh 30.34 in1027.4 mb 0.00 in0.0 mm 0.00 in0.0 mm 0.00 in0.0 mm
05:43 PM 43.3°F6.3°C 19.2°F-7.1°C 38% 8.5 mph NNE13.7 kmh NNE 12.5 mph20.1 kmh 30.34 in1027.4 mb 0.00 in0.0 mm 0.00 in0.0 mm 0.00 in0.0 mm
05:38 PM 43.3°F6.3°C 19.2°F-7.1°C 38% 9.8 mph NNE15.8 kmh NNE 12.5 mph20.1 kmh 30.33 in1027.1 mb 0.00 in0.0 mm 0.00 in0.0 mm 0.00 in0.0 mm
05:33 PM 43.3°F6.3°C 18.6°F-7.4°C 37% 10.4 mph NNE16.7 kmh NNE 14.0 mph22.5 kmh 30.32 in1026.8 mb 0.00 in0.0 mm 0.00 in0.0 mm 0.00 in0.0 mm
05:27 PM 43.3°F6.3°C 19.9°F-6.7°C 39% 8.9 mph NE14.3 kmh NE 14.0 mph22.5 kmh 30.33 in1027.1 mb 0.00 in0.0 mm 0.00 in0.0 mm 0.00 in0.0 mm
05:23 PM 43.5°F6.4°C 18.7°F-7.4°C 37% 12.1 mph NNE19.5 kmh NNE 14.0 mph22.5 kmh 30.33 in1027.1 mb 0.00 in0.0 mm 0.00 in0.0 mm 0.00 in0.0 mm
05:18 PM 43.5°F6.4°C 18.1°F-7.7°C 36% 11.4 mph NE18.3 kmh NE 18.1 mph29.1 kmh 30.34 in1027.4 mb 0.00 in0.0 mm 0.00 in0.0 mm 0.00 in0.0 mm
05:12 PM 43.7°F6.5°C 17.6°F-8.0°C 35% 11.4 mph NE18.3 kmh NE 18.1 mph29.1 kmh 30.34 in1027.4 mb 0.00 in0.0 mm 0.00 in0.0 mm 0.00 in0.0 mm
05:07 PM 43.5°F6.4°C 17.4°F-8.1°C 35% 10.6 mph NNE17.1 kmh NNE 16.1 mph25.9 kmh 30.34 in1027.4 mb 0.00 in0.0 mm 0.00 in0.0 mm 0.00 in0.0 mm
05:02 PM 43.7°F6.5°C 17.6°F-8.0°C 35% 9.9 mph NNE15.9 kmh NNE 16.3 mph26.2 kmh 30.34 in1027.4 mb 0.00 in0.0 mm 0.00 in0.0 mm 0.00 in0.0 mm
04:57 PM 43.7°F6.5°C 16.9°F-8.4°C 34% 10.4 mph N16.7 kmh N 16.3 mph26.2 kmh 30.34 in1027.4 mb 0.00 in0.0 mm 0.00 in0.0 mm 0.00 in0.0 mm
04:52 PM 43.8°F6.6°C 17.0°F-8.3°C 34% 14.4 mph NNE23.2 kmh NNE 19.4 mph31.2 kmh 30.34 in1027.4 mb 0.00 in0.0 mm 0.00 in0.0 mm 0.00 in0.0 mm
04:47 PM 44.2°F6.8°C 18.0°F-7.8°C 35% 8.8 mph NE14.2 kmh NE 19.4 mph31.2 kmh 30.33 in1027.1 mb 0.00 in0.0 mm 0.00 in0.0 mm 0.00 in0.0 mm
04:42 PM 44.0°F6.7°C 16.5°F-8.6°C 33% 12.8 mph NNE20.6 kmh NNE 17.0 mph27.4 kmh 30.34 in1027.4 mb 0.00 in0.0 mm 0.00 in0.0 mm 0.00 in0.0 mm
04:37 PM 44.2°F6.8°C 17.4°F-8.1°C 34% 12.9 mph N20.8 kmh N 15.6 mph25.1 kmh 30.34 in1027.4 mb 0.00 in0.0 mm 0.00 in0.0 mm 0.00 in0.0 mm
04:32 PM 44.2°F6.8°C 18.0°F-7.8°C 35% 11.4 mph NNE18.3 kmh NNE 15.6 mph25.1 kmh 30.35 in1027.8 mb 0.00 in0.0 mm 0.00 in0.0 mm 0.00 in0.0 mm
04:27 PM 44.4°F6.9°C 20.2°F-6.6°C 38% 7.6 mph N12.2 kmh N 13.4 mph21.6 kmh 30.35 in1027.8 mb 0.00 in0.0 mm 0.00 in0.0 mm 0.00 in0.0 mm
04:22 PM 44.2°F6.8°C 19.4°F-7.0°C 37% 10.4 mph NE16.7 kmh NE 13.4 mph21.6 kmh 30.35 in1027.8 mb 0.00 in0.0 mm 0.00 in0.0 mm 0.00 in0.0 mm
04:17 PM 44.9°F7.2°C 19.4°F-7.0°C 36% 6.1 mph NNE9.8 kmh NNE 13.6 mph21.9 kmh 30.35 in1027.8 mb 0.00 in0.0 mm 0.00 in0.0 mm 0.00 in0.0 mm
04:12 PM 44.7°F7.1°C 19.2°F-7.1°C 36% 9.5 mph NE15.3 kmh NE 14.5 mph23.3 kmh 30.34 in1027.4 mb 0.00 in0.0 mm 0.00 in0.0 mm 0.00 in0.0 mm
04:07 PM 44.7°F7.1°C 19.9°F-6.7°C 37% 10.0 mph NE16.1 kmh NE 14.5 mph23.3 kmh 30.34 in1027.4 mb 0.00 in0.0 mm 0.00 in0.0 mm 0.00 in0.0 mm
04:02 PM 44.7°F7.1°C 19.2°F-7.1°C 36% 7.2 mph NNE11.6 kmh NNE 17.2 mph27.7 kmh 30.33 in1027.1 mb 0.00 in0.0 mm 0.00 in0.0 mm 0.00 in0.0 mm
03:57 PM 44.4°F6.9°C 19.5°F-6.9°C 37% 13.8 mph NNE22.2 kmh NNE 18.3 mph29.5 kmh 30.33 in1027.1 mb 0.00 in0.0 mm 0.00 in0.0 mm 0.00 in0.0 mm
03:52 PM 44.4°F6.9°C 20.2°F-6.6°C 39% 14.7 mph NE23.7 kmh NE 18.3 mph29.5 kmh 30.33 in1027.1 mb 0.00 in0.0 mm 0.00 in0.0 mm 0.00 in0.0 mm
03:47 PM 44.7°F7.1°C 20.5°F-6.4°C 38% 12.6 mph NNE20.3 kmh NNE 17.0 mph27.4 kmh 30.32 in1026.8 mb 0.00 in0.0 mm 0.00 in0.0 mm 0.00 in0.0 mm
03:42 PM 44.7°F7.1°C 19.9°F-6.7°C 37% 14.8 mph NNE23.8 kmh NNE 18.3 mph29.5 kmh 30.32 in1026.8 mb 0.00 in0.0 mm 0.00 in0.0 mm 0.00 in0.0 mm
03:37 PM 44.4°F6.9°C 20.2°F-6.6°C 38% 17.2 mph NNE27.7 kmh NNE 20.3 mph32.7 kmh 30.32 in1026.8 mb 0.00 in0.0 mm 0.00 in0.0 mm 0.00 in0.0 mm
03:32 PM 44.4°F6.9°C 20.9°F-6.2°C 39% 18.2 mph N29.3 kmh N 20.8 mph33.5 kmh 30.31 in1026.4 mb 0.00 in0.0 mm 0.00 in0.0 mm 0.00 in0.0 mm
03:27 PM 44.4°F6.9°C 20.2°F-6.6°C 38% 17.9 mph NNE28.8 kmh NNE 20.8 mph33.5 kmh 30.32 in1026.8 mb 0.00 in0.0 mm 0.00 in0.0 mm 0.00 in0.0 mm
03:22 PM 44.2°F6.8°C 20.0°F-6.7°C 38% 17.3 mph NE27.8 kmh NE 20.1 mph32.3 kmh 30.33 in1027.1 mb 0.00 in0.0 mm 0.00 in0.0 mm 0.00 in0.0 mm
03:17 PM 43.8°F6.6°C 20.4°F-6.4°C 39% 16.9 mph NNE27.2 kmh NNE 20.1 mph32.3 kmh 30.33 in1027.1 mb 0.00 in0.0 mm 0.00 in0.0 mm 0.00 in0.0 mm
03:12 PM 43.8°F6.6°C 20.4°F-6.4°C 39% 13.1 mph NE21.1 kmh NE 17.2 mph27.7 kmh 30.33 in1027.1 mb 0.00 in0.0 mm 0.00 in0.0 mm 0.00 in0.0 mm
03:07 PM 43.8°F6.6°C 21.0°F-6.1°C 40% 14.5 mph NE23.3 kmh NE 15.6 mph25.1 kmh 30.33 in1027.1 mb 0.00 in0.0 mm 0.00 in0.0 mm 0.00 in0.0 mm
03:02 PM 43.8°F6.6°C 19.7°F-6.8°C 38% 12.7 mph N20.4 kmh N 14.0 mph22.5 kmh 30.33 in1027.1 mb 0.00 in0.0 mm 0.00 in0.0 mm 0.00 in0.0 mm
02:57 PM 43.8°F6.6°C 21.6°F-5.8°C 41% 10.5 mph N16.9 kmh N 13.4 mph21.6 kmh 30.33 in1027.1 mb 0.00 in0.0 mm 0.00 in0.0 mm 0.00 in0.0 mm
02:52 PM 44.2°F6.8°C 21.9°F-5.6°C 41% 6.9 mph NNE11.1 kmh NNE 14.9 mph24.0 kmh 30.34 in1027.4 mb 0.00 in0.0 mm 0.00 in0.0 mm 0.00 in0.0 mm
02:47 PM 43.7°F6.5°C 20.9°F-6.2°C 40% 8.7 mph NE14.0 kmh NE 14.9 mph24.0 kmh 30.34 in1027.4 mb 0.00 in0.0 mm 0.00 in0.0 mm 0.00 in0.0 mm
02:42 PM 43.5°F6.4°C 18.7°F-7.4°C 37% 10.1 mph N16.3 kmh N 14.0 mph22.5 kmh 30.33 in1027.1 mb 0.00 in0.0 mm 0.00 in0.0 mm 0.00 in0.0 mm
02:37 PM 43.8°F6.6°C 20.4°F-6.4°C 39% 10.7 mph NE17.2 kmh NE 13.8 mph22.2 kmh 30.34 in1027.4 mb 0.00 in0.0 mm 0.00 in0.0 mm 0.00 in0.0 mm
02:32 PM 43.7°F6.5°C 19.6°F-6.9°C 38% 10.1 mph NE16.3 kmh NE 13.8 mph22.2 kmh 30.34 in1027.4 mb 0.00 in0.0 mm 0.00 in0.0 mm 0.00 in0.0 mm
02:27 PM 44.2°F6.8°C 21.4°F-5.9°C 40% 6.8 mph NNE10.9 kmh NNE 12.3 mph19.8 kmh 30.35 in1027.8 mb 0.00 in0.0 mm 0.00 in0.0 mm 0.00 in0.0 mm
02:22 PM 43.8°F6.6°C 21.0°F-6.1°C 40% 8.8 mph NNE14.2 kmh NNE 16.7 mph26.9 kmh 30.34 in1027.4 mb 0.00 in0.0 mm 0.00 in0.0 mm 0.00 in0.0 mm
02:17 PM 43.5°F6.4°C 20.1°F-6.6°C 39% 13.2 mph NNE21.2 kmh NNE 16.7 mph26.9 kmh 30.33 in1027.1 mb 0.00 in0.0 mm 0.00 in0.0 mm 0.00 in0.0 mm
02:12 PM 43.8°F6.6°C 20.4°F-6.4°C 39% 8.8 mph N14.2 kmh N 15.4 mph24.8 kmh 30.33 in1027.1 mb 0.00 in0.0 mm 0.00 in0.0 mm 0.00 in0.0 mm
02:07 PM 43.3°F6.3°C 18.6°F-7.4°C 37% 14.5 mph NNE23.3 kmh NNE 19.4 mph31.2 kmh 30.33 in1027.1 mb 0.00 in0.0 mm 0.00 in0.0 mm 0.00 in0.0 mm
02:02 PM 43.3°F6.3°C 18.6°F-7.4°C 37% 16.0 mph N25.7 kmh N 19.4 mph31.2 kmh 30.33 in1027.1 mb 0.00 in0.0 mm 0.00 in0.0 mm 0.00 in0.0 mm
01:57 PM 43.3°F6.3°C 17.9°F-7.8°C 36% 11.0 mph NE17.7 kmh NE 19.0 mph30.6 kmh 30.33 in1027.1 mb 0.00 in0.0 mm 0.00 in0.0 mm 0.00 in0.0 mm
01:52 PM 43.8°F6.6°C 17.7°F-7.9°C 35% 13.0 mph NNE20.9 kmh NNE 17.2 mph27.7 kmh 30.33 in1027.1 mb 0.00 in0.0 mm 0.00 in0.0 mm 0.00 in0.0 mm
01:47 PM 44.2°F6.8°C 17.4°F-8.1°C 34% 9.7 mph NNE15.6 kmh NNE 12.5 mph20.1 kmh 30.34 in1027.4 mb 0.00 in0.0 mm 0.00 in0.0 mm 0.00 in0.0 mm
01:42 PM 44.2°F6.8°C 17.4°F-8.1°C 34% 6.4 mph NE10.3 kmh NE 11.8 mph19.0 kmh 30.34 in1027.4 mb 0.00 in0.0 mm 0.00 in0.0 mm 0.00 in0.0 mm
01:37 PM 43.8°F6.6°C 17.7°F-7.9°C 35% 4.7 mph N7.6 kmh N 11.8 mph19.0 kmh 30.35 in1027.8 mb 0.00 in0.0 mm 0.00 in0.0 mm 0.00 in0.0 mm
01:32 PM 43.7°F6.5°C 18.2°F-7.7°C 36% 8.8 mph N14.2 kmh N 12.0 mph19.3 kmh 30.35 in1027.8 mb 0.00 in0.0 mm 0.00 in0.0 mm 0.00 in0.0 mm
01:27 PM 43.3°F6.3°C 18.6°F-7.4°C 37% 8.6 mph N13.8 kmh N 12.0 mph19.3 kmh 30.36 in1028.1 mb 0.00 in0.0 mm 0.00 in0.0 mm 0.00 in0.0 mm
01:22 PM 43.3°F6.3°C 19.2°F-7.1°C 38% 7.0 mph NNE11.3 kmh NNE 11.6 mph18.7 kmh 30.37 in1028.4 mb 0.00 in0.0 mm 0.00 in0.0 mm 0.00 in0.0 mm
01:17 PM 42.9°F6.1°C 18.9°F-7.3°C 38% 8.1 mph NE13.0 kmh NE 11.6 mph18.7 kmh 30.37 in1028.4 mb 0.00 in0.0 mm 0.00 in0.0 mm 0.00 in0.0 mm
01:12 PM 43.3°F6.3°C 19.9°F-6.7°C 39% 4.5 mph NNE7.2 kmh NNE 15.4 mph24.8 kmh 30.37 in1028.4 mb 0.00 in0.0 mm 0.00 in0.0 mm 0.00 in0.0 mm
01:06 PM 42.9°F6.1°C 20.2°F-6.6°C 40% 8.6 mph N13.8 kmh N 16.5 mph26.6 kmh 30.37 in1028.4 mb 0.00 in0.0 mm 0.00 in0.0 mm 0.00 in0.0 mm
01:02 PM 42.4°F5.8°C 19.1°F-7.2°C 39% 12.8 mph NNE20.6 kmh NNE 16.5 mph26.6 kmh 30.36 in1028.1 mb 0.00 in0.0 mm 0.00 in0.0 mm 0.00 in0.0 mm
12:57 PM 42.4°F5.8°C 18.4°F-7.6°C 38% 12.7 mph NNE20.4 kmh NNE 18.1 mph29.1 kmh 30.37 in1028.4 mb 0.00 in0.0 mm 0.00 in0.0 mm 0.00 in0.0 mm
12:52 PM 42.2°F5.7°C 18.3°F-7.6°C 38% 15.3 mph NE24.6 kmh NE 18.1 mph29.1 kmh 30.36 in1028.1 mb 0.00 in0.0 mm 0.00 in0.0 mm 0.00 in0.0 mm
12:47 PM 42.4°F5.8°C 19.1°F-7.2°C 39% 15.0 mph NNE24.1 kmh NNE 18.5 mph29.8 kmh 30.36 in1028.1 mb 0.00 in0.0 mm 0.00 in0.0 mm 0.00 in0.0 mm
12:41 PM 42.0°F5.6°C 19.4°F-7.0°C 40% 15.8 mph NE25.4 kmh NE 18.5 mph29.8 kmh 30.36 in1028.1 mb 0.00 in0.0 mm 0.00 in0.0 mm 0.00 in0.0 mm
12:36 PM 42.4°F5.8°C 19.7°F-6.8°C 40% 13.4 mph NE21.6 kmh NE 16.3 mph26.2 kmh 30.36 in1028.1 mb 0.00 in0.0 mm 0.00 in0.0 mm 0.00 in0.0 mm
12:31 PM 42.9°F6.1°C 20.2°F-6.6°C 40% 8.7 mph NNE14.0 kmh NNE 16.3 mph26.2 kmh 30.35 in1027.8 mb 0.00 in0.0 mm 0.00 in0.0 mm 0.00 in0.0 mm
12:26 PM 42.6°F5.9°C 19.2°F-7.1°C 39% 12.1 mph NE19.5 kmh NE 15.6 mph25.1 kmh 30.35 in1027.8 mb 0.00 in0.0 mm 0.00 in0.0 mm 0.00 in0.0 mm
12:21 PM 42.4°F5.8°C 19.1°F-7.2°C 39% 12.6 mph NNE20.3 kmh NNE 15.8 mph25.4 kmh 30.36 in1028.1 mb 0.00 in0.0 mm 0.00 in0.0 mm 0.00 in0.0 mm
12:16 PM 42.2°F5.7°C 19.6°F-6.9°C 40% 10.1 mph NE16.3 kmh NE 21.6 mph34.8 kmh 30.37 in1028.4 mb 0.00 in0.0 mm 0.00 in0.0 mm 0.00 in0.0 mm
12:11 PM 41.9°F5.5°C 18.6°F-7.4°C 39% 15.9 mph NNE25.6 kmh NNE 21.6 mph34.8 kmh 30.36 in1028.1 mb 0.00 in0.0 mm 0.00 in0.0 mm 0.00 in0.0 mm
12:06 PM 41.9°F5.5°C 19.3°F-7.1°C 40% 12.8 mph NE20.6 kmh NE 20.3 mph32.7 kmh 30.36 in1028.1 mb 0.00 in0.0 mm 0.00 in0.0 mm 0.00 in0.0 mm
12:01 PM 41.7°F5.4°C 16.5°F-8.6°C 36% 18.0 mph NE29.0 kmh NE 20.3 mph32.7 kmh 30.36 in1028.1 mb 0.00 in0.0 mm 0.00 in0.0 mm 0.00 in0.0 mm
11:56 AM 42.0°F5.6°C 18.1°F-7.7°C 38% 7.3 mph NE11.7 kmh NE 15.6 mph25.1 kmh 30.37 in1028.4 mb 0.00 in0.0 mm 0.00 in0.0 mm 0.00 in0.0 mm
11:51 AM 41.7°F5.4°C 17.8°F-7.9°C 38% 12.3 mph NE19.8 kmh NE 17.6 mph28.3 kmh 30.37 in1028.4 mb 0.00 in0.0 mm 0.00 in0.0 mm 0.00 in0.0 mm
11:46 AM 41.5°F5.3°C 17.6°F-8.0°C 38% 14.5 mph NNE23.3 kmh NNE 17.6 mph28.3 kmh 30.37 in1028.4 mb 0.00 in0.0 mm 0.00 in0.0 mm 0.00 in0.0 mm
11:41 AM 41.9°F5.5°C 21.9°F-5.6°C 45% 11.1 mph NE17.9 kmh NE 16.1 mph25.9 kmh 30.37 in1028.4 mb 0.00 in0.0 mm 0.00 in0.0 mm 0.00 in0.0 mm
11:36 AM 41.5°F5.3°C 21.6°F-5.8°C 45% 12.6 mph NNE20.3 kmh NNE 16.1 mph25.9 kmh 30.37 in1028.4 mb 0.00 in0.0 mm 0.00 in0.0 mm 0.00 in0.0 mm
11:31 AM 41.5°F5.3°C 21.6°F-5.8°C 45% 11.6 mph NE18.7 kmh NE 15.4 mph24.8 kmh 30.37 in1028.4 mb 0.00 in0.0 mm 0.00 in0.0 mm 0.00 in0.0 mm
11:26 AM 41.5°F5.3°C 22.6°F-5.2°C 47% 11.9 mph NNE19.2 kmh NNE 17.0 mph27.4 kmh 30.36 in1028.1 mb 0.00 in0.0 mm 0.00 in0.0 mm 0.00 in0.0 mm
11:21 AM 41.3°F5.2°C 21.9°F-5.6°C 46% 11.6 mph NNE18.7 kmh NNE 17.4 mph28.0 kmh 30.36 in1028.1 mb 0.00 in0.0 mm 0.00 in0.0 mm 0.00 in0.0 mm
11:16 AM 41.3°F5.2°C 21.9°F-5.6°C 46% 11.1 mph NNE17.9 kmh NNE 17.4 mph28.0 kmh 30.36 in1028.1 mb 0.00 in0.0 mm 0.00 in0.0 mm 0.00 in0.0 mm
11:11 AM 41.1°F5.1°C 22.8°F-5.1°C 48% 12.6 mph NE20.3 kmh NE 16.1 mph25.9 kmh 30.36 in1028.1 mb 0.00 in0.0 mm 0.00 in0.0 mm 0.00 in0.0 mm
11:06 AM 41.3°F5.2°C 22.5°F-5.3°C 47% 12.3 mph NNE19.8 kmh NNE 16.1 mph25.9 kmh 30.36 in1028.1 mb 0.00 in0.0 mm 0.00 in0.0 mm 0.00 in0.0 mm
11:01 AM 41.1°F5.1°C 21.8°F-5.7°C 46% 12.5 mph NE20.1 kmh NE 16.1 mph25.9 kmh 30.36 in1028.1 mb 0.00 in0.0 mm 0.00 in0.0 mm 0.00 in0.0 mm
10:56 AM 41.1°F5.1°C 22.3°F-5.4°C 47% 13.6 mph NE21.9 kmh NE 14.0 mph22.5 kmh 30.36 in1028.1 mb 0.00 in0.0 mm 0.00 in0.0 mm 0.00 in0.0 mm
10:51 AM 41.1°F5.1°C 21.2°F-6.0°C 45% 10.5 mph NE16.9 kmh NE 12.3 mph19.8 kmh 30.36 in1028.1 mb 0.00 in0.0 mm 0.00 in0.0 mm 0.00 in0.0 mm
10:46 AM 41.1°F5.1°C 22.3°F-5.4°C 47% 9.4 mph NNE15.1 kmh NNE 15.2 mph24.5 kmh 30.36 in1028.1 mb 0.00 in0.0 mm 0.00 in0.0 mm 0.00 in0.0 mm
10:41 AM 40.8°F4.9°C 21.9°F-5.6°C 47% 10.1 mph NE16.3 kmh NE 15.6 mph25.1 kmh 30.36 in1028.1 mb 0.00 in0.0 mm 0.00 in0.0 mm 0.00 in0.0 mm
10:36 AM 40.8°F4.9°C 21.4°F-5.9°C 46% 12.7 mph NNE20.4 kmh NNE 15.6 mph25.1 kmh 30.37 in1028.4 mb 0.00 in0.0 mm 0.00 in0.0 mm 0.00 in0.0 mm
10:31 AM 40.8°F4.9°C 20.9°F-6.2°C 45% 10.2 mph NE16.4 kmh NE 16.3 mph26.2 kmh 30.36 in1028.1 mb 0.00 in0.0 mm 0.00 in0.0 mm 0.00 in0.0 mm
10:26 AM 41.0°F5.0°C 21.1°F-6.1°C 45% 15.1 mph NE24.3 kmh NE 16.3 mph26.2 kmh 30.36 in1028.1 mb 0.00 in0.0 mm 0.00 in0.0 mm 0.00 in0.0 mm
10:21 AM 41.3°F5.2°C 22.5°F-5.3°C 47% 13.7 mph NNE22.0 kmh NNE 16.3 mph26.2 kmh 30.36 in1028.1 mb 0.00 in0.0 mm 0.00 in0.0 mm 0.00 in0.0 mm
10:16 AM 41.1°F5.1°C 21.8°F-5.7°C 46% 11.1 mph NE17.9 kmh NE 17.0 mph27.4 kmh 30.36 in1028.1 mb 0.00 in0.0 mm 0.00 in0.0 mm 0.00 in0.0 mm
10:11 AM 41.0°F5.0°C 21.6°F-5.8°C 46% 11.7 mph NNE18.8 kmh NNE 17.0 mph27.4 kmh 30.36 in1028.1 mb 0.00 in0.0 mm 0.00 in0.0 mm 0.00 in0.0 mm
10:06 AM 41.1°F5.1°C 21.8°F-5.7°C 46% 12.0 mph NE19.3 kmh NE 16.7 mph26.9 kmh 30.37 in1028.4 mb 0.00 in0.0 mm 0.00 in0.0 mm 0.00 in0.0 mm
10:01 AM 40.8°F4.9°C 21.4°F-5.9°C 46% 9.1 mph NE14.6 kmh NE 16.7 mph26.9 kmh 30.37 in1028.4 mb 0.00 in0.0 mm 0.00 in0.0 mm 0.00 in0.0 mm
09:56 AM 41.5°F5.3°C 22.6°F-5.2°C 47% 9.0 mph NNE14.5 kmh NNE 11.4 mph18.3 kmh 30.37 in1028.4 mb 0.00 in0.0 mm 0.00 in0.0 mm 0.00 in0.0 mm
09:51 AM 41.5°F5.3°C 23.2°F-4.9°C 48% 6.8 mph NE10.9 kmh NE 11.4 mph18.3 kmh 30.37 in1028.4 mb 0.00 in0.0 mm 0.00 in0.0 mm 0.00 in0.0 mm
09:46 AM 41.1°F5.1°C 21.8°F-5.7°C 46% 8.0 mph NE12.9 kmh NE 11.4 mph18.3 kmh 30.37 in1028.4 mb 0.00 in0.0 mm 0.00 in0.0 mm 0.00 in0.0 mm
09:41 AM 41.5°F5.3°C 21.0°F-6.1°C 44% 5.5 mph NE8.9 kmh NE 14.0 mph22.5 kmh 30.37 in1028.4 mb 0.00 in0.0 mm 0.00 in0.0 mm 0.00 in0.0 mm
09:36 AM 41.0°F5.0°C 19.0°F-7.2°C 41% 8.5 mph NE13.7 kmh NE 14.0 mph22.5 kmh 30.37 in1028.4 mb 0.00 in0.0 mm 0.00 in0.0 mm 0.00 in0.0 mm
09:31 AM 40.6°F4.8°C 18.7°F-7.4°C 41% 12.3 mph ENE19.8 kmh ENE 16.7 mph26.9 kmh 30.36 in1028.1 mb 0.00 in0.0 mm 0.00 in0.0 mm 0.00 in0.0 mm
09:26 AM 40.8°F4.9°C 19.9°F-6.7°C 43% 14.9 mph NNE24.0 kmh NNE 20.8 mph33.5 kmh 30.34 in1027.4 mb 0.00 in0.0 mm 0.00 in0.0 mm 0.00 in0.0 mm
09:21 AM 40.8°F4.9°C 19.9°F-6.7°C 43% 16.0 mph N25.7 kmh N 20.8 mph33.5 kmh 30.33 in1027.1 mb 0.00 in0.0 mm 0.00 in0.0 mm 0.00 in0.0 mm
09:16 AM 40.8°F4.9°C 20.4°F-6.4°C 44% 11.9 mph NE19.2 kmh NE 20.5 mph33.0 kmh 30.34 in1027.4 mb 0.00 in0.0 mm 0.00 in0.0 mm 0.00 in0.0 mm
09:11 AM 40.6°F4.8°C 19.7°F-6.8°C 43% 14.1 mph NE22.7 kmh NE 17.8 mph28.6 kmh 30.36 in1028.1 mb 0.00 in0.0 mm 0.00 in0.0 mm 0.00 in0.0 mm
09:06 AM 40.6°F4.8°C 18.7°F-7.4°C 41% 15.8 mph N25.4 kmh N 21.0 mph33.8 kmh 30.37 in1028.4 mb 0.00 in0.0 mm 0.00 in0.0 mm 0.00 in0.0 mm
09:01 AM 40.6°F4.8°C 18.1°F-7.7°C 40% 13.3 mph NNE21.4 kmh NNE 21.0 mph33.8 kmh 30.37 in1028.4 mb 0.00 in0.0 mm 0.00 in0.0 mm 0.00 in0.0 mm
08:56 AM 40.6°F4.8°C 17.5°F-8.1°C 39% 13.9 mph NNE22.4 kmh NNE 25.0 mph40.2 kmh 30.37 in1028.4 mb 0.00 in0.0 mm 0.00 in0.0 mm 0.00 in0.0 mm
08:51 AM 40.2°F4.6°C 15.9°F-8.9°C 37% 18.3 mph NE29.5 kmh NE 25.0 mph40.2 kmh 30.36 in1028.1 mb 0.00 in0.0 mm 0.00 in0.0 mm 0.00 in0.0 mm
08:46 AM 40.2°F4.6°C 18.8°F-7.3°C 42% 19.5 mph NE31.4 kmh NE 23.7 mph38.1 kmh 30.35 in1027.8 mb 0.00 in0.0 mm 0.00 in0.0 mm 0.00 in0.0 mm
08:41 AM 40.6°F4.8°C 19.7°F-6.8°C 43% 15.5 mph NE24.9 kmh NE 21.4 mph34.4 kmh 30.36 in1028.1 mb 0.00 in0.0 mm 0.00 in0.0 mm 0.00 in0.0 mm
08:36 AM 40.6°F4.8°C 18.1°F-7.7°C 40% 16.8 mph NE27.0 kmh NE 20.8 mph33.5 kmh 30.36 in1028.1 mb 0.00 in0.0 mm 0.00 in0.0 mm 0.00 in0.0 mm
08:31 AM 40.6°F4.8°C 17.5°F-8.1°C 39% 9.8 mph NE15.8 kmh NE 14.0 mph22.5 kmh 30.37 in1028.4 mb 0.00 in0.0 mm 0.00 in0.0 mm 0.00 in0.0 mm
01:27 AM 46.9°F8.3°C 38.0°F3.3°C 71% 2.4 mph ENE3.9 kmh ENE 4.4 mph7.1 kmh 30.23 in1023.7 mb 0.00 in0.0 mm 0.00 in0.0 mm 0.00 in0.0 mm
01:26 AM 46.9°F8.3°C 38.0°F3.3°C 71% 2.4 mph ENE3.9 kmh ENE 4.4 mph7.1 kmh 30.23 in1023.7 mb 0.00 in0.0 mm 0.00 in0.0 mm 0.00 in0.0 mm
01:21 AM 47.1°F8.4°C 38.2°F3.4°C 71% 3.6 mph NE5.8 kmh NE 4.6 mph7.4 kmh 30.23 in1023.7 mb 0.00 in0.0 mm 0.00 in0.0 mm 0.00 in0.0 mm
01:16 AM 46.9°F8.3°C 39.4°F4.1°C 74% 3.5 mph ENE5.6 kmh ENE 5.8 mph9.3 kmh 30.23 in1023.7 mb 0.00 in0.0 mm 0.00 in0.0 mm 0.00 in0.0 mm
01:11 AM 46.9°F8.3°C 39.7°F4.3°C 76% 4.9 mph ENE7.9 kmh ENE 5.8 mph9.3 kmh 30.23 in1023.7 mb 0.00 in0.0 mm 0.00 in0.0 mm 0.00 in0.0 mm
01:06 AM 46.5°F8.1°C 42.3°F5.7°C 85% 2.5 mph NNE4.0 kmh NNE 5.5 mph8.9 kmh 30.22 in1023.4 mb 0.00 in0.0 mm 0.00 in0.0 mm 0.00 in0.0 mm
01:01 AM 45.6°F7.6°C 41.7°F5.4°C 86% 2.2 mph ESE3.5 kmh ESE 5.5 mph8.9 kmh 30.22 in1023.4 mb 0.00 in0.0 mm 0.00 in0.0 mm 0.00 in0.0 mm
12:56 AM 42.9°F6.1°C 39.3°F4.1°C 87% 5.5 mph ENE8.9 kmh ENE 5.5 mph8.9 kmh 30.22 in1023.4 mb 0.00 in0.0 mm 0.00 in0.0 mm 0.00 in0.0 mm
12:51 AM 42.9°F6.1°C 39.3°F4.1°C 87% 0.4 mph 0.6 kmh 0.8 mph1.3 kmh 30.22 in1023.4 mb 0.00 in0.0 mm 0.00 in0.0 mm 0.00 in0.0 mm
12:46 AM 43.3°F6.3°C 40.0°F4.4°C 88% 0.6 mph NNE1.0 kmh NNE 1.5 mph2.4 kmh 30.22 in1023.4 mb 0.00 in0.0 mm 0.00 in0.0 mm 0.00 in0.0 mm
12:41 AM 42.9°F6.1°C 39.6°F4.2°C 88% 0.9 mph N1.4 kmh N 1.5 mph2.4 kmh 30.22 in1023.4 mb 0.00 in0.0 mm 0.00 in0.0 mm 0.00 in0.0 mm
12:36 AM 41.7°F5.4°C 38.4°F3.6°C 88% Calm Calm 2.2 mph3.5 kmh 30.22 in1023.4 mb 0.00 in0.0 mm 0.00 in0.0 mm 0.00 in0.0 mm
12:31 AM 40.8°F4.9°C 37.5°F3.1°C 88% 0.4 mph NNE0.6 kmh NNE 2.2 mph3.5 kmh 30.21 in1023.0 mb 0.00 in0.0 mm 0.00 in0.0 mm 0.00 in0.0 mm
12:25 AM 40.2°F4.6°C 36.6°F2.6°C 88% 2.0 mph SSW3.2 kmh SSW 2.2 mph3.5 kmh 30.22 in1023.4 mb 0.00 in0.0 mm 0.00 in0.0 mm 0.00 in0.0 mm
12:20 AM 40.2°F4.6°C 36.6°F2.6°C 88% 0.9 mph SSW1.4 kmh SSW 2.6 mph4.2 kmh 30.21 in1023.0 mb 0.00 in0.0 mm 0.00 in0.0 mm 0.00 in0.0 mm
12:16 AM 40.2°F4.6°C 36.6°F2.6°C 88% 2.0 mph SW3.2 kmh SW 2.6 mph4.2 kmh 30.21 in1023.0 mb 0.00 in0.0 mm 0.00 in0.0 mm 0.00 in0.0 mm
12:11 AM 40.1°F4.5°C 36.5°F2.5°C 87% 1.4 mph S2.3 kmh S 3.8 mph6.1 kmh 30.21 in1023.0 mb 0.00 in0.0 mm 0.00 in0.0 mm 0.00 in0.0 mm
12:06 AM 40.1°F4.5°C 36.5°F2.5°C 87% 1.4 mph SSW2.3 kmh SSW 3.8 mph6.1 kmh 30.20 in1022.7 mb 0.00 in0.0 mm 0.00 in0.0 mm 0.00 in0.0 mm
12:00 AM 40.2°F4.6°C 36.6°F2.6°C 87% 2.6 mph SSW4.2 kmh SSW 3.3 mph5.3 kmh 30.20 in1022.7 mb 0.00 in0.0 mm 0.00 in0.0 mm 0.00 in0.0 mm